sensor_id;sensor_type;location;lat;lon;timestamp;P1;durP1;ratioP1;P2;durP2;ratioP2
58222;SDS011;44020;50.890;15.796;2022-10-16T00:01:30;50.80;;;25.70;;
58222;SDS011;44020;50.890;15.796;2022-10-16T00:03:58;27.10;;;17.40;;
58222;SDS011;44020;50.890;15.796;2022-10-16T00:06:26;25.50;;;15.50;;
58222;SDS011;44020;50.890;15.796;2022-10-16T00:08:54;35.10;;;19.00;;
58222;SDS011;44020;50.890;15.796;2022-10-16T00:11:23;27.40;;;16.10;;
58222;SDS011;44020;50.890;15.796;2022-10-16T00:13:57;26.70;;;16.10;;
58222;SDS011;44020;50.890;15.796;2022-10-16T00:16:25;25.10;;;15.00;;
58222;SDS011;44020;50.890;15.796;2022-10-16T00:18:54;23.70;;;15.20;;
58222;SDS011;44020;50.890;15.796;2022-10-16T00:21:23;30.60;;;16.20;;
58222;SDS011;44020;50.890;15.796;2022-10-16T00:23:52;32.20;;;17.20;;
58222;SDS011;44020;50.890;15.796;2022-10-16T00:26:20;29.70;;;16.40;;
58222;SDS011;44020;50.890;15.796;2022-10-16T00:28:49;27.10;;;15.40;;
58222;SDS011;44020;50.890;15.796;2022-10-16T00:31:18;24.50;;;15.30;;
58222;SDS011;44020;50.890;15.796;2022-10-16T00:33:47;33.50;;;17.80;;
58222;SDS011;44020;50.890;15.796;2022-10-16T00:36:15;27.00;;;15.30;;
58222;SDS011;44020;50.890;15.796;2022-10-16T00:38:44;23.90;;;15.20;;
58222;SDS011;44020;50.890;15.796;2022-10-16T00:41:15;31.10;;;16.90;;
58222;SDS011;44020;50.890;15.796;2022-10-16T00:43:44;33.20;;;18.20;;
58222;SDS011;44020;50.890;15.796;2022-10-16T00:46:30;44.00;;;21.50;;
58222;SDS011;44020;50.890;15.796;2022-10-16T00:49:10;32.90;;;18.00;;
58222;SDS011;44020;50.890;15.796;2022-10-16T00:51:40;33.20;;;17.20;;
58222;SDS011;44020;50.890;15.796;2022-10-16T00:54:17;27.20;;;15.60;;
58222;SDS011;44020;50.890;15.796;2022-10-16T00:56:48;24.00;;;13.90;;
58222;SDS011;44020;50.890;15.796;2022-10-16T00:59:18;42.20;;;23.80;;
58222;SDS011;44020;50.890;15.796;2022-10-16T01:01:49;36.40;;;20.60;;
58222;SDS011;44020;50.890;15.796;2022-10-16T01:04:16;34.80;;;18.40;;
58222;SDS011;44020;50.890;15.796;2022-10-16T01:09:17;25.90;;;16.30;;
58222;SDS011;44020;50.890;15.796;2022-10-16T01:14:28;24.10;;;14.20;;
58222;SDS011;44020;50.890;15.796;2022-10-16T01:17:11;24.80;;;14.30;;
58222;SDS011;44020;50.890;15.796;2022-10-16T01:20:16;21.70;;;12.70;;
58222;SDS011;44020;50.890;15.796;2022-10-16T01:28:51;18.20;;;10.90;;
58222;SDS011;44020;50.890;15.796;2022-10-16T01:31:24;20.60;;;13.60;;
58222;SDS011;44020;50.890;15.796;2022-10-16T01:33:57;19.80;;;12.60;;
58222;SDS011;44020;50.890;15.796;2022-10-16T01:36:31;21.90;;;13.30;;
58222;SDS011;44020;50.890;15.796;2022-10-16T01:39:05;20.10;;;12.60;;
58222;SDS011;44020;50.890;15.796;2022-10-16T01:41:39;23.50;;;13.60;;
58222;SDS011;44020;50.890;15.796;2022-10-16T01:44:14;20.90;;;13.10;;
58222;SDS011;44020;50.890;15.796;2022-10-16T01:46:46;19.90;;;10.60;;
58222;SDS011;44020;50.890;15.796;2022-10-16T01:49:17;18.80;;;11.20;;
58222;SDS011;44020;50.890;15.796;2022-10-16T01:51:46;19.50;;;11.30;;
58222;SDS011;44020;50.890;15.796;2022-10-16T01:54:17;17.00;;;10.40;;
58222;SDS011;44020;50.890;15.796;2022-10-16T01:56:47;17.20;;;11.00;;
58222;SDS011;44020;50.890;15.796;2022-10-16T01:59:18;19.90;;;11.50;;
58222;SDS011;44020;50.890;15.796;2022-10-16T02:01:49;23.90;;;12.00;;
58222;SDS011;44020;50.890;15.796;2022-10-16T02:04:33;18.10;;;11.50;;
58222;SDS011;44020;50.890;15.796;2022-10-16T02:07:04;17.10;;;10.60;;
58222;SDS011;44020;50.890;15.796;2022-10-16T02:09:32;21.20;;;12.10;;
58222;SDS011;44020;50.890;15.796;2022-10-16T02:12:03;16.10;;;10.50;;
58222;SDS011;44020;50.890;15.796;2022-10-16T02:14:38;17.10;;;11.00;;
58222;SDS011;44020;50.890;15.796;2022-10-16T02:17:13;16.80;;;10.20;;
58222;SDS011;44020;50.890;15.796;2022-10-16T02:19:42;16.10;;;9.70;;
58222;SDS011;44020;50.890;15.796;2022-10-16T02:22:15;8.20;;;5.70;;
58222;SDS011;44020;50.890;15.796;2022-10-16T02:24:57;8.80;;;5.20;;
58222;SDS011;44020;50.890;15.796;2022-10-16T02:27:33;10.20;;;6.00;;
58222;SDS011;44020;50.890;15.796;2022-10-16T02:32:36;5.40;;;3.90;;
58222;SDS011;44020;50.890;15.796;2022-10-16T02:35:07;4.20;;;3.00;;
58222;SDS011;44020;50.890;15.796;2022-10-16T02:37:36;5.00;;;3.40;;
58222;SDS011;44020;50.890;15.796;2022-10-16T02:40:05;4.80;;;3.70;;
58222;SDS011;44020;50.890;15.796;2022-10-16T02:42:35;5.30;;;3.80;;
58222;SDS011;44020;50.890;15.796;2022-10-16T02:45:04;3.60;;;3.00;;
58222;SDS011;44020;50.890;15.796;2022-10-16T02:47:33;2.70;;;2.30;;
58222;SDS011;44020;50.890;15.796;2022-10-16T02:50:00;5.00;;;2.70;;
58222;SDS011;44020;50.890;15.796;2022-10-16T02:52:27;3.20;;;2.40;;
58222;SDS011;44020;50.890;15.796;2022-10-16T02:54:54;4.50;;;2.70;;
58222;SDS011;44020;50.890;15.796;2022-10-16T02:57:21;4.30;;;3.00;;
58222;SDS011;44020;50.890;15.796;2022-10-16T02:59:48;6.20;;;3.50;;
58222;SDS011;44020;50.890;15.796;2022-10-16T03:02:15;10.20;;;4.30;;
58222;SDS011;44020;50.890;15.796;2022-10-16T03:04:42;9.00;;;6.00;;
58222;SDS011;44020;50.890;15.796;2022-10-16T03:07:09;10.00;;;7.00;;
58222;SDS011;44020;50.890;15.796;2022-10-16T03:09:36;10.00;;;6.70;;
58222;SDS011;44020;50.890;15.796;2022-10-16T03:12:03;14.50;;;8.20;;
58222;SDS011;44020;50.890;15.796;2022-10-16T03:14:30;12.40;;;8.20;;
58222;SDS011;44020;50.890;15.796;2022-10-16T03:16:58;10.90;;;8.00;;
58222;SDS011;44020;50.890;15.796;2022-10-16T03:19:24;11.20;;;7.20;;
58222;SDS011;44020;50.890;15.796;2022-10-16T03:21:51;10.20;;;6.90;;
58222;SDS011;44020;50.890;15.796;2022-10-16T03:24:18;7.90;;;5.70;;
58222;SDS011;44020;50.890;15.796;2022-10-16T03:26:45;5.20;;;3.40;;
58222;SDS011;44020;50.890;15.796;2022-10-16T03:29:12;3.00;;;2.20;;
58222;SDS011;44020;50.890;15.796;2022-10-16T03:31:39;3.00;;;2.20;;
58222;SDS011;44020;50.890;15.796;2022-10-16T03:34:07;1.80;;;1.50;;
58222;SDS011;44020;50.890;15.796;2022-10-16T03:36:34;2.70;;;1.50;;
58222;SDS011;44020;50.890;15.796;2022-10-16T03:39:01;2.60;;;1.40;;
58222;SDS011;44020;50.890;15.796;2022-10-16T03:41:28;2.00;;;1.20;;
58222;SDS011;44020;50.890;15.796;2022-10-16T03:43:55;1.90;;;1.10;;
58222;SDS011;44020;50.890;15.796;2022-10-16T03:46:22;1.20;;;1.10;;
58222;SDS011;44020;50.890;15.796;2022-10-16T03:48:49;1.70;;;1.40;;
58222;SDS011;44020;50.890;15.796;2022-10-16T03:51:15;2.30;;;1.60;;
58222;SDS011;44020;50.890;15.796;2022-10-16T03:53:42;1.60;;;1.40;;
58222;SDS011;44020;50.890;15.796;2022-10-16T03:56:09;1.50;;;1.20;;
58222;SDS011;44020;50.890;15.796;2022-10-16T03:58:36;1.30;;;1.20;;
58222;SDS011;44020;50.890;15.796;2022-10-16T04:01:03;1.50;;;1.30;;
58222;SDS011;44020;50.890;15.796;2022-10-16T04:03:30;3.40;;;1.50;;
58222;SDS011;44020;50.890;15.796;2022-10-16T04:05:57;1.30;;;1.20;;
58222;SDS011;44020;50.890;15.796;2022-10-16T04:08:24;1.60;;;1.00;;
58222;SDS011;44020;50.890;15.796;2022-10-16T04:10:51;1.30;;;0.80;;
58222;SDS011;44020;50.890;15.796;2022-10-16T04:13:18;1.30;;;1.00;;
58222;SDS011;44020;50.890;15.796;2022-10-16T04:15:45;1.00;;;0.90;;
58222;SDS011;44020;50.890;15.796;2022-10-16T04:18:13;1.10;;;1.00;;
58222;SDS011;44020;50.890;15.796;2022-10-16T04:20:40;1.10;;;0.70;;
58222;SDS011;44020;50.890;15.796;2022-10-16T04:23:07;1.40;;;1.00;;
58222;SDS011;44020;50.890;15.796;2022-10-16T04:25:34;2.10;;;0.80;;
58222;SDS011;44020;50.890;15.796;2022-10-16T04:28:01;1.40;;;1.00;;
58222;SDS011;44020;50.890;15.796;2022-10-16T04:30:28;1.30;;;1.00;;
58222;SDS011;44020;50.890;15.796;2022-10-16T04:32:55;1.30;;;1.00;;
58222;SDS011;44020;50.890;15.796;2022-10-16T04:35:22;1.30;;;1.00;;
58222;SDS011;44020;50.890;15.796;2022-10-16T04:37:49;1.10;;;0.80;;
58222;SDS011;44020;50.890;15.796;2022-10-16T04:40:17;1.10;;;0.90;;
58222;SDS011;44020;50.890;15.796;2022-10-16T04:42:44;2.50;;;1.00;;
58222;SDS011;44020;50.890;15.796;2022-10-16T04:45:11;2.30;;;1.20;;
58222;SDS011;44020;50.890;15.796;2022-10-16T04:47:38;4.10;;;2.00;;
58222;SDS011;44020;50.890;15.796;2022-10-16T04:50:05;7.30;;;2.50;;
58222;SDS011;44020;50.890;15.796;2022-10-16T04:52:32;3.30;;;2.10;;
58222;SDS011;44020;50.890;15.796;2022-10-16T04:55:00;3.50;;;2.30;;
58222;SDS011;44020;50.890;15.796;2022-10-16T04:57:29;3.50;;;2.70;;
58222;SDS011;44020;50.890;15.796;2022-10-16T04:59:56;4.70;;;2.60;;
58222;SDS011;44020;50.890;15.796;2022-10-16T05:02:23;4.60;;;2.30;;
58222;SDS011;44020;50.890;15.796;2022-10-16T05:04:51;4.70;;;2.40;;
58222;SDS011;44020;50.890;15.796;2022-10-16T05:07:18;4.00;;;2.50;;
58222;SDS011;44020;50.890;15.796;2022-10-16T05:09:45;3.50;;;2.40;;
58222;SDS011;44020;50.890;15.796;2022-10-16T05:12:12;3.10;;;2.20;;
58222;SDS011;44020;50.890;15.796;2022-10-16T05:14:39;3.60;;;2.80;;
58222;SDS011;44020;50.890;15.796;2022-10-16T05:17:06;3.60;;;2.40;;
58222;SDS011;44020;50.890;15.796;2022-10-16T05:19:33;3.20;;;2.40;;
58222;SDS011;44020;50.890;15.796;2022-10-16T05:22:00;5.30;;;2.70;;
58222;SDS011;44020;50.890;15.796;2022-10-16T05:24:27;3.70;;;2.60;;
58222;SDS011;44020;50.890;15.796;2022-10-16T05:26:54;4.10;;;2.50;;
58222;SDS011;44020;50.890;15.796;2022-10-16T05:29:21;3.00;;;2.40;;
58222;SDS011;44020;50.890;15.796;2022-10-16T05:31:52;3.80;;;2.40;;
58222;SDS011;44020;50.890;15.796;2022-10-16T05:34:20;3.90;;;2.40;;
58222;SDS011;44020;50.890;15.796;2022-10-16T05:36:47;3.50;;;2.30;;
58222;SDS011;44020;50.890;15.796;2022-10-16T05:39:15;3.90;;;2.70;;
58222;SDS011;44020;50.890;15.796;2022-10-16T05:41:43;5.30;;;2.60;;
58222;SDS011;44020;50.890;15.796;2022-10-16T05:44:10;4.60;;;3.00;;
58222;SDS011;44020;50.890;15.796;2022-10-16T05:46:37;4.00;;;2.80;;
58222;SDS011;44020;50.890;15.796;2022-10-16T05:49:04;4.00;;;2.60;;
58222;SDS011;44020;50.890;15.796;2022-10-16T05:51:31;4.90;;;2.70;;
58222;SDS011;44020;50.890;15.796;2022-10-16T05:53:58;4.10;;;2.70;;
58222;SDS011;44020;50.890;15.796;2022-10-16T05:56:25;3.00;;;2.40;;
58222;SDS011;44020;50.890;15.796;2022-10-16T05:58:52;3.00;;;2.20;;
58222;SDS011;44020;50.890;15.796;2022-10-16T06:01:19;3.90;;;3.00;;
58222;SDS011;44020;50.890;15.796;2022-10-16T06:03:47;5.40;;;3.30;;
58222;SDS011;44020;50.890;15.796;2022-10-16T06:06:15;6.30;;;3.70;;
58222;SDS011;44020;50.890;15.796;2022-10-16T06:08:44;6.40;;;3.60;;
58222;SDS011;44020;50.890;15.796;2022-10-16T06:11:17;4.80;;;3.10;;
58222;SDS011;44020;50.890;15.796;2022-10-16T06:13:49;4.80;;;2.10;;
58222;SDS011;44020;50.890;15.796;2022-10-16T06:16:17;3.20;;;2.00;;
58222;SDS011;44020;50.890;15.796;2022-10-16T06:18:45;2.90;;;1.80;;
58222;SDS011;44020;50.890;15.796;2022-10-16T06:21:17;2.30;;;1.70;;
58222;SDS011;44020;50.890;15.796;2022-10-16T06:23:46;2.70;;;1.90;;
58222;SDS011;44020;50.890;15.796;2022-10-16T06:26:17;2.20;;;1.60;;
58222;SDS011;44020;50.890;15.796;2022-10-16T06:31:13;4.60;;;3.00;;
58222;SDS011;44020;50.890;15.796;2022-10-16T06:33:41;5.10;;;3.10;;
58222;SDS011;44020;50.890;15.796;2022-10-16T06:36:10;3.40;;;2.50;;
58222;SDS011;44020;50.890;15.796;2022-10-16T06:38:39;26.00;;;11.10;;
58222;SDS011;44020;50.890;15.796;2022-10-16T06:41:09;31.00;;;15.30;;
58222;SDS011;44020;50.890;15.796;2022-10-16T06:43:38;23.70;;;11.60;;
58222;SDS011;44020;50.890;15.796;2022-10-16T06:46:05;11.00;;;6.50;;
58222;SDS011;44020;50.890;15.796;2022-10-16T06:48:34;8.90;;;5.60;;
58222;SDS011;44020;50.890;15.796;2022-10-16T06:51:03;17.90;;;8.30;;
58222;SDS011;44020;50.890;15.796;2022-10-16T06:53:36;19.30;;;8.00;;
58222;SDS011;44020;50.890;15.796;2022-10-16T06:56:06;17.60;;;8.10;;
58222;SDS011;44020;50.890;15.796;2022-10-16T06:58:38;11.80;;;5.80;;
58222;SDS011;44020;50.890;15.796;2022-10-16T07:01:05;16.80;;;8.90;;
58222;SDS011;44020;50.890;15.796;2022-10-16T07:03:33;13.70;;;7.00;;
58222;SDS011;44020;50.890;15.796;2022-10-16T07:06:05;9.40;;;6.20;;
58222;SDS011;44020;50.890;15.796;2022-10-16T07:08:33;8.00;;;5.00;;
58222;SDS011;44020;50.890;15.796;2022-10-16T07:11:01;6.20;;;4.30;;
58222;SDS011;44020;50.890;15.796;2022-10-16T07:13:30;6.80;;;4.20;;
58222;SDS011;44020;50.890;15.796;2022-10-16T07:16:09;6.00;;;4.50;;
58222;SDS011;44020;50.890;15.796;2022-10-16T07:18:38;8.10;;;4.20;;
58222;SDS011;44020;50.890;15.796;2022-10-16T07:21:10;6.50;;;4.30;;
58222;SDS011;44020;50.890;15.796;2022-10-16T07:23:40;7.40;;;4.90;;
58222;SDS011;44020;50.890;15.796;2022-10-16T07:26:07;7.70;;;4.70;;
58222;SDS011;44020;50.890;15.796;2022-10-16T07:28:36;7.00;;;3.80;;
58222;SDS011;44020;50.890;15.796;2022-10-16T07:31:05;7.30;;;4.00;;
58222;SDS011;44020;50.890;15.796;2022-10-16T07:33:34;6.10;;;3.40;;
58222;SDS011;44020;50.890;15.796;2022-10-16T07:36:01;9.30;;;4.60;;
58222;SDS011;44020;50.890;15.796;2022-10-16T07:38:29;8.20;;;4.60;;
58222;SDS011;44020;50.890;15.796;2022-10-16T07:40:59;6.20;;;3.50;;
58222;SDS011;44020;50.890;15.796;2022-10-16T07:43:28;4.80;;;3.70;;
58222;SDS011;44020;50.890;15.796;2022-10-16T07:45:56;13.70;;;6.50;;
58222;SDS011;44020;50.890;15.796;2022-10-16T07:48:23;10.80;;;5.40;;
58222;SDS011;44020;50.890;15.796;2022-10-16T07:50:56;8.90;;;4.90;;
58222;SDS011;44020;50.890;15.796;2022-10-16T07:53:27;9.00;;;5.20;;
58222;SDS011;44020;50.890;15.796;2022-10-16T07:56:04;6.80;;;4.50;;
58222;SDS011;44020;50.890;15.796;2022-10-16T07:58:33;8.50;;;4.00;;
58222;SDS011;44020;50.890;15.796;2022-10-16T08:01:03;5.40;;;4.10;;
58222;SDS011;44020;50.890;15.796;2022-10-16T08:03:32;6.80;;;3.80;;
58222;SDS011;44020;50.890;15.796;2022-10-16T08:05:59;5.10;;;3.30;;
58222;SDS011;44020;50.890;15.796;2022-10-16T08:08:27;4.60;;;3.10;;
58222;SDS011;44020;50.890;15.796;2022-10-16T08:10:54;6.70;;;4.50;;
58222;SDS011;44020;50.890;15.796;2022-10-16T08:13:21;4.50;;;3.30;;
58222;SDS011;44020;50.890;15.796;2022-10-16T08:15:48;22.60;;;11.20;;
58222;SDS011;44020;50.890;15.796;2022-10-16T08:18:15;21.40;;;11.00;;
58222;SDS011;44020;50.890;15.796;2022-10-16T08:20:43;11.30;;;6.70;;
58222;SDS011;44020;50.890;15.796;2022-10-16T08:23:13;4.20;;;3.20;;
58222;SDS011;44020;50.890;15.796;2022-10-16T08:25:40;3.60;;;2.70;;
58222;SDS011;44020;50.890;15.796;2022-10-16T08:28:09;6.00;;;3.60;;
58222;SDS011;44020;50.890;15.796;2022-10-16T08:30:37;7.50;;;4.20;;
58222;SDS011;44020;50.890;15.796;2022-10-16T08:33:04;4.60;;;3.50;;
58222;SDS011;44020;50.890;15.796;2022-10-16T08:35:33;3.10;;;2.70;;
58222;SDS011;44020;50.890;15.796;2022-10-16T08:38:02;2.70;;;2.10;;
58222;SDS011;44020;50.890;15.796;2022-10-16T08:40:31;2.60;;;2.20;;
58222;SDS011;44020;50.890;15.796;2022-10-16T08:48:54;3.10;;;1.80;;
58222;SDS011;44020;50.890;15.796;2022-10-16T08:51:25;1.90;;;1.70;;
58222;SDS011;44020;50.890;15.796;2022-10-16T08:53:59;1.40;;;1.30;;
58222;SDS011;44020;50.890;15.796;2022-10-16T08:56:30;2.00;;;1.60;;
58222;SDS011;44020;50.890;15.796;2022-10-16T08:58:58;1.60;;;1.50;;
58222;SDS011;44020;50.890;15.796;2022-10-16T09:01:44;1.60;;;1.40;;
58222;SDS011;44020;50.890;15.796;2022-10-16T09:06:51;2.90;;;1.60;;
58222;SDS011;44020;50.890;15.796;2022-10-16T09:25:37;1.80;;;1.00;;
58222;SDS011;44020;50.890;15.796;2022-10-16T09:28:07;0.60;;;0.60;;
58222;SDS011;44020;50.890;15.796;2022-10-16T09:30:37;2.50;;;0.90;;
58222;SDS011;44020;50.890;15.796;2022-10-16T09:33:06;1.10;;;0.80;;
58222;SDS011;44020;50.890;15.796;2022-10-16T09:38:23;1.60;;;0.80;;
58222;SDS011;44020;50.890;15.796;2022-10-16T09:40:59;1.60;;;1.00;;
58222;SDS011;44020;50.890;15.796;2022-10-16T09:46:06;1.20;;;0.80;;
58222;SDS011;44020;50.890;15.796;2022-10-16T09:48:39;0.90;;;0.80;;
58222;SDS011;44020;50.890;15.796;2022-10-16T09:51:21;1.10;;;1.00;;
58222;SDS011;44020;50.890;15.796;2022-10-16T09:54:13;1.60;;;1.00;;
58222;SDS011;44020;50.890;15.796;2022-10-16T09:56:42;0.90;;;0.70;;
58222;SDS011;44020;50.890;15.796;2022-10-16T09:59:13;1.60;;;1.00;;
58222;SDS011;44020;50.890;15.796;2022-10-16T10:01:46;1.10;;;0.80;;
58222;SDS011;44020;50.890;15.796;2022-10-16T10:04:15;1.00;;;0.80;;
58222;SDS011;44020;50.890;15.796;2022-10-16T10:06:46;0.80;;;0.70;;
58222;SDS011;44020;50.890;15.796;2022-10-16T10:09:24;1.40;;;0.70;;
58222;SDS011;44020;50.890;15.796;2022-10-16T10:11:58;0.90;;;0.70;;
58222;SDS011;44020;50.890;15.796;2022-10-16T10:17:08;1.20;;;0.70;;
58222;SDS011;44020;50.890;15.796;2022-10-16T10:19:39;0.50;;;0.50;;
58222;SDS011;44020;50.890;15.796;2022-10-16T10:22:16;0.70;;;0.50;;
58222;SDS011;44020;50.890;15.796;2022-10-16T10:27:26;4.90;;;0.80;;
58222;SDS011;44020;50.890;15.796;2022-10-16T10:30:25;1.00;;;0.60;;
58222;SDS011;44020;50.890;15.796;2022-10-16T10:34:03;2.00;;;1.50;;
58222;SDS011;44020;50.890;15.796;2022-10-16T10:36:27;7.10;;;3.40;;
58222;SDS011;44020;50.890;15.796;2022-10-16T10:41:37;2.10;;;1.30;;
58222;SDS011;44020;50.890;15.796;2022-10-16T10:44:21;7.60;;;4.90;;
58222;SDS011;44020;50.890;15.796;2022-10-16T10:47:07;1.80;;;1.30;;
58222;SDS011;44020;50.890;15.796;2022-10-16T10:58:15;1.90;;;1.00;;
58222;SDS011;44020;50.890;15.796;2022-10-16T11:01:12;0.70;;;0.70;;
58222;SDS011;44020;50.890;15.796;2022-10-16T11:06:51;0.50;;;0.50;;
58222;SDS011;44020;50.890;15.796;2022-10-16T11:09:34;1.20;;;0.70;;
58222;SDS011;44020;50.890;15.796;2022-10-16T11:17:30;3.10;;;0.80;;
58222;SDS011;44020;50.890;15.796;2022-10-16T11:25:46;2.20;;;1.40;;
58222;SDS011;44020;50.890;15.796;2022-10-16T11:33:41;1.00;;;0.70;;
58222;SDS011;44020;50.890;15.796;2022-10-16T11:39:16;1.00;;;0.60;;
58222;SDS011;44020;50.890;15.796;2022-10-16T11:41:49;1.20;;;0.70;;
58222;SDS011;44020;50.890;15.796;2022-10-16T11:49:52;1.00;;;0.50;;
58222;SDS011;44020;50.890;15.796;2022-10-16T11:52:26;0.60;;;0.60;;
58222;SDS011;44020;50.890;15.796;2022-10-16T11:55:20;1.30;;;0.60;;
58222;SDS011;44020;50.890;15.796;2022-10-16T12:03:59;0.60;;;0.60;;
58222;SDS011;44020;50.890;15.796;2022-10-16T12:06:46;0.60;;;0.60;;
58222;SDS011;44020;50.890;15.796;2022-10-16T12:09:21;0.70;;;0.60;;
58222;SDS011;44020;50.890;15.796;2022-10-16T12:11:51;0.70;;;0.60;;
58222;SDS011;44020;50.890;15.796;2022-10-16T12:14:39;1.30;;;0.70;;
58222;SDS011;44020;50.890;15.796;2022-10-16T12:17:23;0.70;;;0.60;;
58222;SDS011;44020;50.890;15.796;2022-10-16T12:23:01;1.60;;;0.80;;
58222;SDS011;44020;50.890;15.796;2022-10-16T12:25:30;0.90;;;0.80;;
58222;SDS011;44020;50.890;15.796;2022-10-16T12:28:06;4.20;;;1.50;;
58222;SDS011;44020;50.890;15.796;2022-10-16T12:30:53;1.80;;;0.80;;
58222;SDS011;44020;50.890;15.796;2022-10-16T12:33:23;0.60;;;0.60;;
58222;SDS011;44020;50.890;15.796;2022-10-16T12:36:02;1.30;;;0.80;;
58222;SDS011;44020;50.890;15.796;2022-10-16T12:38:50;0.90;;;0.80;;
58222;SDS011;44020;50.890;15.796;2022-10-16T12:41:28;1.70;;;0.60;;
58222;SDS011;44020;50.890;15.796;2022-10-16T12:43:57;1.10;;;0.70;;
58222;SDS011;44020;50.890;15.796;2022-10-16T12:51:38;1.20;;;0.60;;
58222;SDS011;44020;50.890;15.796;2022-10-16T13:02:21;0.80;;;0.80;;
58222;SDS011;44020;50.890;15.796;2022-10-16T13:16:39;1.10;;;0.60;;
58222;SDS011;44020;50.890;15.796;2022-10-16T13:19:24;0.90;;;0.70;;
58222;SDS011;44020;50.890;15.796;2022-10-16T13:22:08;1.20;;;0.60;;
58222;SDS011;44020;50.890;15.796;2022-10-16T13:28:21;1.00;;;0.70;;
58222;SDS011;44020;50.890;15.796;2022-10-16T13:30:37;2.10;;;0.70;;
58222;SDS011;44020;50.890;15.796;2022-10-16T13:33:11;0.80;;;0.70;;
58222;SDS011;44020;50.890;15.796;2022-10-16T13:35:52;0.80;;;0.70;;
58222;SDS011;44020;50.890;15.796;2022-10-16T13:38:22;0.50;;;0.50;;
58222;SDS011;44020;50.890;15.796;2022-10-16T13:43:36;1.20;;;0.80;;
58222;SDS011;44020;50.890;15.796;2022-10-16T13:46:05;0.60;;;0.60;;
58222;SDS011;44020;50.890;15.796;2022-10-16T13:48:43;1.20;;;0.60;;
58222;SDS011;44020;50.890;15.796;2022-10-16T13:51:13;1.20;;;0.70;;
58222;SDS011;44020;50.890;15.796;2022-10-16T13:53:42;1.70;;;0.80;;
58222;SDS011;44020;50.890;15.796;2022-10-16T13:56:11;1.20;;;0.70;;
58222;SDS011;44020;50.890;15.796;2022-10-16T13:58:42;2.20;;;0.60;;
58222;SDS011;44020;50.890;15.796;2022-10-16T14:01:18;0.60;;;0.60;;
58222;SDS011;44020;50.890;15.796;2022-10-16T14:04:05;1.00;;;0.70;;
58222;SDS011;44020;50.890;15.796;2022-10-16T14:06:36;1.30;;;0.80;;
58222;SDS011;44020;50.890;15.796;2022-10-16T14:09:08;0.80;;;0.70;;
58222;SDS011;44020;50.890;15.796;2022-10-16T14:11:45;0.90;;;0.60;;
58222;SDS011;44020;50.890;15.796;2022-10-16T14:14:18;1.00;;;0.80;;
58222;SDS011;44020;50.890;15.796;2022-10-16T14:16:46;0.90;;;0.60;;
58222;SDS011;44020;50.890;15.796;2022-10-16T14:21:55;2.70;;;1.80;;
58222;SDS011;44020;50.890;15.796;2022-10-16T14:26:56;4.30;;;2.00;;
58222;SDS011;44020;50.890;15.796;2022-10-16T14:29:24;1.80;;;1.00;;
58222;SDS011;44020;50.890;15.796;2022-10-16T14:37:06;2.50;;;0.80;;
58222;SDS011;44020;50.890;15.796;2022-10-16T14:39:42;0.70;;;0.70;;
58222;SDS011;44020;50.890;15.796;2022-10-16T14:42:19;1.00;;;0.90;;
58222;SDS011;44020;50.890;15.796;2022-10-16T14:44:50;0.90;;;0.70;;
58222;SDS011;44020;50.890;15.796;2022-10-16T14:47:22;1.40;;;0.80;;
58222;SDS011;44020;50.890;15.796;2022-10-16T14:49:53;2.20;;;1.00;;
58222;SDS011;44020;50.890;15.796;2022-10-16T14:52:22;1.20;;;0.90;;
58222;SDS011;44020;50.890;15.796;2022-10-16T14:54:49;2.10;;;1.20;;
58222;SDS011;44020;50.890;15.796;2022-10-16T14:57:27;1.50;;;1.00;;
58222;SDS011;44020;50.890;15.796;2022-10-16T14:59:58;0.90;;;0.80;;
58222;SDS011;44020;50.890;15.796;2022-10-16T15:04:58;1.10;;;1.00;;
58222;SDS011;44020;50.890;15.796;2022-10-16T15:07:37;1.70;;;0.80;;
58222;SDS011;44020;50.890;15.796;2022-10-16T15:10:04;3.20;;;0.80;;
58222;SDS011;44020;50.890;15.796;2022-10-16T15:12:32;1.30;;;0.90;;
58222;SDS011;44020;50.890;15.796;2022-10-16T15:14:59;4.90;;;3.50;;
58222;SDS011;44020;50.890;15.796;2022-10-16T15:17:25;2.50;;;1.90;;
58222;SDS011;44020;50.890;15.796;2022-10-16T15:19:52;5.20;;;3.30;;
58222;SDS011;44020;50.890;15.796;2022-10-16T15:22:19;6.50;;;4.10;;
58222;SDS011;44020;50.890;15.796;2022-10-16T15:24:49;3.90;;;2.80;;
58222;SDS011;44020;50.890;15.796;2022-10-16T15:27:16;7.60;;;3.90;;
58222;SDS011;44020;50.890;15.796;2022-10-16T15:29:43;7.20;;;3.80;;
58222;SDS011;44020;50.890;15.796;2022-10-16T15:32:10;4.40;;;2.50;;
58222;SDS011;44020;50.890;15.796;2022-10-16T15:34:38;5.00;;;3.10;;
58222;SDS011;44020;50.890;15.796;2022-10-16T15:37:05;5.10;;;3.10;;
58222;SDS011;44020;50.890;15.796;2022-10-16T15:39:32;4.90;;;2.60;;
58222;SDS011;44020;50.890;15.796;2022-10-16T15:41:59;2.80;;;2.30;;
58222;SDS011;44020;50.890;15.796;2022-10-16T15:44:25;6.40;;;4.00;;
58222;SDS011;44020;50.890;15.796;2022-10-16T15:46:56;7.20;;;4.60;;
58222;SDS011;44020;50.890;15.796;2022-10-16T15:49:23;8.10;;;4.20;;
58222;SDS011;44020;50.890;15.796;2022-10-16T15:51:50;6.50;;;3.40;;
58222;SDS011;44020;50.890;15.796;2022-10-16T15:54:19;7.20;;;2.70;;
58222;SDS011;44020;50.890;15.796;2022-10-16T15:56:49;5.80;;;2.30;;
58222;SDS011;44020;50.890;15.796;2022-10-16T15:59:16;8.70;;;2.50;;
58222;SDS011;44020;50.890;15.796;2022-10-16T16:01:43;4.50;;;2.80;;
58222;SDS011;44020;50.890;15.796;2022-10-16T16:04:10;7.50;;;3.20;;
58222;SDS011;44020;50.890;15.796;2022-10-16T16:06:37;6.00;;;3.40;;
58222;SDS011;44020;50.890;15.796;2022-10-16T16:09:06;6.20;;;3.40;;
58222;SDS011;44020;50.890;15.796;2022-10-16T16:11:33;8.40;;;5.00;;
58222;SDS011;44020;50.890;15.796;2022-10-16T16:14:07;10.80;;;7.60;;
58222;SDS011;44020;50.890;15.796;2022-10-16T16:16:39;13.80;;;8.10;;
58222;SDS011;44020;50.890;15.796;2022-10-16T16:19:06;11.90;;;7.60;;
58222;SDS011;44020;50.890;15.796;2022-10-16T16:21:34;9.10;;;6.20;;
58222;SDS011;44020;50.890;15.796;2022-10-16T16:24:01;6.80;;;4.30;;
58222;SDS011;44020;50.890;15.796;2022-10-16T16:26:34;5.20;;;4.10;;
58222;SDS011;44020;50.890;15.796;2022-10-16T16:29:06;5.70;;;3.90;;
58222;SDS011;44020;50.890;15.796;2022-10-16T16:31:34;3.50;;;2.70;;
58222;SDS011;44020;50.890;15.796;2022-10-16T16:34:01;2.60;;;1.80;;
58222;SDS011;44020;50.890;15.796;2022-10-16T16:36:29;1.80;;;1.50;;
58222;SDS011;44020;50.890;15.796;2022-10-16T16:38:57;3.30;;;1.70;;
58222;SDS011;44020;50.890;15.796;2022-10-16T16:41:28;5.60;;;2.70;;
58222;SDS011;44020;50.890;15.796;2022-10-16T16:44:06;17.60;;;9.60;;
58222;SDS011;44020;50.890;15.796;2022-10-16T16:46:35;17.70;;;10.10;;
58222;SDS011;44020;50.890;15.796;2022-10-16T16:49:02;15.30;;;7.60;;
58222;SDS011;44020;50.890;15.796;2022-10-16T16:51:30;17.20;;;11.00;;
58222;SDS011;44020;50.890;15.796;2022-10-16T16:53:57;17.80;;;11.30;;
58222;SDS011;44020;50.890;15.796;2022-10-16T16:56:24;22.70;;;14.60;;
58222;SDS011;44020;50.890;15.796;2022-10-16T16:58:53;23.80;;;16.40;;
58222;SDS011;44020;50.890;15.796;2022-10-16T17:01:22;29.60;;;20.60;;
58222;SDS011;44020;50.890;15.796;2022-10-16T17:03:51;18.00;;;12.20;;
58222;SDS011;44020;50.890;15.796;2022-10-16T17:06:21;16.20;;;12.00;;
58222;SDS011;44020;50.890;15.796;2022-10-16T17:08:49;22.40;;;14.30;;
58222;SDS011;44020;50.890;15.796;2022-10-16T17:11:21;23.20;;;16.20;;
58222;SDS011;44020;50.890;15.796;2022-10-16T17:13:50;23.00;;;16.10;;